Time;durP1;ratioP1;P1;durP2;ratioP2;P2;SDS_P1;SDS_P2;PMS_P1;PMS_P2;Temp;Humidity;BMP_temperature;BMP_pressure;BME280_temperature;BME280_humidity;BME280_pressure;Samples;Min_cycle;Max_cycle;Signal;HPM_P1;HPM_P2
2024/02/01 00:02:20;;;;;;;10.00;3.88;;;;;;;;;;5051388;28;20049;-68
2024/02/01 00:04:47;;;;;;;15.88;4.13;;;;;;;;;;5054184;28;20063;-69
2024/02/01 00:07:14;;;;;;;9.90;4.40;;;;;;;;;;5043649;28;20057;-68
2024/02/01 00:09:41;;;;;;;11.05;4.20;;;;;;;;;;5054320;28;20049;-69
2024/02/01 00:12:10;;;;;;;10.40;3.88;;;;;;;;;;5051401;28;20064;-70
2024/02/01 00:14:36;;;;;;;11.55;3.97;;;;;;;;;;5035868;28;20056;-67
2024/02/01 00:17:04;;;;;;;9.13;4.35;;;;;;;;;;5040432;28;20057;-71
2024/02/01 00:19:30;;;;;;;9.40;4.05;;;;;;;;;;5032659;28;20076;-69
2024/02/01 00:21:57;;;;;;;10.85;4.28;;;;;;;;;;5048537;28;20408;-68
2024/02/01 00:24:24;;;;;;;7.38;4.03;;;;;;;;;;5029833;28;20064;-66
2024/02/01 00:26:50;;;;;;;9.38;3.03;;;;;;;;;;5043195;28;20076;-69
2024/02/01 00:29:18;;;;;;;8.65;3.20;;;;;;;;;;5037449;28;20045;-69
2024/02/01 00:31:45;;;;;;;10.65;3.78;;;;;;;;;;5041775;28;20064;-70
2024/02/01 00:34:12;;;;;;;12.30;4.22;;;;;;;;;;5033009;28;20071;-67
2024/02/01 00:36:40;;;;;;;8.05;3.45;;;;;;;;;;5038385;28;20065;-70
2024/02/01 00:39:07;;;;;;;9.80;3.95;;;;;;;;;;5032506;28;20048;-70
2024/02/01 00:41:34;;;;;;;9.55;4.03;;;;;;;;;;5033070;28;20341;-69
2024/02/01 00:44:00;;;;;;;8.43;3.67;;;;;;;;;;5017464;28;20077;-68
2024/02/01 00:46:28;;;;;;;7.97;3.50;;;;;;;;;;5029958;28;20049;-70
2024/02/01 00:48:55;;;;;;;9.60;4.13;;;;;;;;;;5034793;28;20348;-70
2024/02/01 00:51:22;;;;;;;10.38;4.20;;;;;;;;;;5032775;28;20048;-67
2024/02/01 00:53:48;;;;;;;6.25;2.95;;;;;;;;;;5041698;28;20291;-70
2024/02/01 00:56:15;;;;;;;10.43;4.63;;;;;;;;;;5037781;28;20129;-68
2024/02/01 00:58:42;;;;;;;8.82;3.92;;;;;;;;;;5036895;28;20048;-68
2024/02/01 01:01:09;;;;;;;7.57;3.78;;;;;;;;;;5037235;28;20144;-68
2024/02/01 01:03:37;;;;;;;16.95;4.55;;;;;;;;;;5027419;28;20091;-71
2024/02/01 01:06:04;;;;;;;11.55;4.20;;;;;;;;;;5038071;28;20106;-71
2024/02/01 01:08:31;;;;;;;7.45;3.35;;;;;;;;;;5037609;28;20049;-67
2024/02/01 01:10:58;;;;;;;8.10;3.42;;;;;;;;;;5037329;28;20068;-69
2024/02/01 01:13:24;;;;;;;7.95;3.53;;;;;;;;;;5023567;28;20240;-70
2024/02/01 01:15:51;;;;;;;10.82;4.72;;;;;;;;;;5047802;28;20111;-67
2024/02/01 01:18:18;;;;;;;17.38;5.13;;;;;;;;;;5036316;28;20088;-68
2024/02/01 01:20:46;;;;;;;8.60;4.03;;;;;;;;;;5034157;28;20041;-68
2024/02/01 01:23:13;;;;;;;8.18;3.78;;;;;;;;;;5019753;28;20132;-69
2024/02/01 01:25:39;;;;;;;9.77;3.95;;;;;;;;;;5032732;28;20120;-70
2024/02/01 01:28:06;;;;;;;9.48;3.55;;;;;;;;;;5045397;28;20049;-67
2024/02/01 01:30:33;;;;;;;9.43;3.33;;;;;;;;;;5034152;28;20068;-71
2024/02/01 01:32:59;;;;;;;10.10;4.00;;;;;;;;;;5039215;28;20060;-68
2024/02/01 01:35:26;;;;;;;6.55;3.08;;;;;;;;;;5029950;28;20134;-70
2024/02/01 01:37:54;;;;;;;7.30;3.20;;;;;;;;;;5037788;28;20053;-70
2024/02/01 01:40:21;;;;;;;7.38;3.55;;;;;;;;;;5030654;28;20045;-71
2024/02/01 01:42:48;;;;;;;11.80;3.80;;;;;;;;;;5035235;28;20087;-70
2024/02/01 01:45:16;;;;;;;11.55;3.53;;;;;;;;;;5031170;28;20049;-73
2024/02/01 01:47:43;;;;;;;8.10;3.65;;;;;;;;;;5053227;28;20106;-69
2024/02/01 01:50:10;;;;;;;8.30;3.88;;;;;;;;;;5036634;28;20072;-70
2024/02/01 01:52:37;;;;;;;8.18;3.60;;;;;;;;;;5022309;28;20057;-68
2024/02/01 01:55:08;;;;;;;9.32;3.88;;;;;;;;;;5036591;28;20048;-71
2024/02/01 01:57:35;;;;;;;10.98;3.67;;;;;;;;;;5032798;28;20106;-72
2024/02/01 02:00:04;;;;;;;6.88;3.03;;;;;;;;;;5039869;28;20111;-71
2024/02/01 02:02:32;;;;;;;6.50;3.20;;;;;;;;;;5032616;28;20462;-71
2024/02/01 02:05:00;;;;;;;5.82;2.95;;;;;;;;;;5043335;28;20073;-69
2024/02/01 02:07:27;;;;;;;9.60;3.17;;;;;;;;;;5030974;28;20216;-68
2024/02/01 02:09:54;;;;;;;8.82;3.22;;;;;;;;;;5045412;28;20048;-68
2024/02/01 02:12:22;;;;;;;7.57;3.75;;;;;;;;;;5029475;28;20042;-70
2024/02/01 02:14:58;;;;;;;8.90;3.22;;;;;;;;;;5034042;28;20053;-68
2024/02/01 02:17:26;;;;;;;7.18;2.90;;;;;;;;;;5030750;28;20140;-68
2024/02/01 02:19:53;;;;;;;;;;;;;;;;;;5036806;28;20059;-69
2024/02/01 02:22:21;;;;;;;8.98;3.13;;;;;;;;;;5034976;28;19924;-67
2024/02/01 02:24:48;;;;;;;5.85;3.22;;;;;;;;;;5029962;28;20696;-69
2024/02/01 02:27:16;;;;;;;10.07;3.92;;;;;;;;;;5035347;28;20049;-69
2024/02/01 02:29:43;;;;;;;9.05;3.13;;;;;;;;;;5034711;28;20052;-67
2024/02/01 02:32:10;;;;;;;7.68;3.13;;;;;;;;;;5036995;28;20151;-67
2024/02/01 02:34:37;;;;;;;9.07;4.00;;;;;;;;;;5028581;28;20122;-67
2024/02/01 02:37:04;;;;;;;8.85;3.50;;;;;;;;;;5045604;28;20106;-69
2024/02/01 02:39:32;;;;;;;11.27;3.55;;;;;;;;;;5031967;28;20051;-69
2024/02/01 02:41:58;;;;;;;8.90;3.08;;;;;;;;;;5040160;28;20045;-66
2024/02/01 02:44:25;;;;;;;8.48;2.90;;;;;;;;;;5030616;28;20045;-67
2024/02/01 02:46:52;;;;;;;8.55;2.67;;;;;;;;;;5034970;28;20063;-69
2024/02/01 02:49:18;;;;;;;9.48;2.63;;;;;;;;;;5031222;28;20041;-69
2024/02/01 02:51:45;;;;;;;11.68;3.13;;;;;;;;;;5036472;28;20040;-68
2024/02/01 02:54:12;;;;;;;15.82;3.47;;;;;;;;;;5030387;28;20072;-68
2024/02/01 02:56:40;;;;;;;5.38;2.50;;;;;;;;;;5031286;28;20152;-66
2024/02/01 02:59:07;;;;;;;4.70;2.03;;;;;;;;;;5036107;28;20146;-66
2024/02/01 03:01:33;;;;;;;11.60;2.30;;;;;;;;;;5025808;28;20062;-67
2024/02/01 03:04:00;;;;;;;7.68;2.22;;;;;;;;;;5029839;28;20064;-66
2024/02/01 03:06:27;;;;;;;11.38;3.10;;;;;;;;;;5048494;28;20113;-69
2024/02/01 03:08:54;;;;;;;9.25;2.72;;;;;;;;;;5040164;28;20141;-69
2024/02/01 03:11:21;;;;;;;7.05;2.25;;;;;;;;;;5039311;28;20080;-66
2024/02/01 03:13:51;;;;;;;9.95;2.50;;;;;;;;;;5036220;28;20145;-68
2024/02/01 03:16:18;;;;;;;5.72;2.20;;;;;;;;;;5029986;28;20056;-66
2024/02/01 03:18:45;;;;;;;11.00;2.30;;;;;;;;;;5042333;28;20044;-66
2024/02/01 03:21:12;;;;;;;3.53;1.60;;;;;;;;;;5038095;28;20053;-69
2024/02/01 03:23:45;;;;;;;6.72;2.35;;;;;;;;;;5027499;28;20056;-66
2024/02/01 03:26:13;;;;;;;9.73;2.05;;;;;;;;;;5037695;28;20057;-67
2024/02/01 03:28:41;;;;;;;14.43;2.33;;;;;;;;;;5033743;28;20154;-70
2024/02/01 03:31:11;;;;;;;8.15;2.28;;;;;;;;;;5033551;28;20128;-68
2024/02/01 03:33:39;;;;;;;7.38;2.00;;;;;;;;;;5022883;28;20106;-70
2024/02/01 03:36:08;;;;;;;11.82;2.45;;;;;;;;;;5026642;28;20049;-67
2024/02/01 03:38:34;;;;;;;1.45;0.73;;;;;;;;;;5039782;28;20075;-66
2024/02/01 03:41:01;;;;;;;6.13;2.03;;;;;;;;;;5035892;28;20044;-66
2024/02/01 03:43:28;;;;;;;12.88;2.38;;;;;;;;;;5035002;28;20084;-67
2024/02/01 03:45:55;;;;;;;2.92;1.35;;;;;;;;;;5033416;28;20283;-68
2024/02/01 03:48:24;;;;;;;8.50;2.20;;;;;;;;;;5036454;28;20091;-69
2024/02/01 03:50:50;;;;;;;9.35;1.98;;;;;;;;;;5041440;28;20120;-68
2024/02/01 03:53:18;;;;;;;21.38;2.20;;;;;;;;;;5036805;28;20076;-68
2024/02/01 03:55:48;;;;;;;16.95;1.75;;;;;;;;;;5030565;28;20045;-69
2024/02/01 03:58:16;;;;;;;9.45;1.83;;;;;;;;;;5048516;28;20056;-67
2024/02/01 04:00:44;;;;;;;5.83;1.33;;;;;;;;;;5034506;28;20093;-67
2024/02/01 04:03:14;;;;;;;4.72;1.30;;;;;;;;;;5041998;28;20052;-65
2024/02/01 04:05:44;;;;;;;1.58;0.80;;;;;;;;;;5043499;28;20144;-66
2024/02/01 04:08:12;;;;;;;7.65;1.60;;;;;;;;;;5034871;28;20095;-67
2024/02/01 04:10:39;;;;;;;6.93;1.42;;;;;;;;;;5036019;28;20110;-66
2024/02/01 04:13:08;;;;;;;7.20;1.20;;;;;;;;;;5036996;28;20056;-67
2024/02/01 04:15:36;;;;;;;11.25;1.48;;;;;;;;;;5026449;28;20051;-65
2024/02/01 04:18:04;;;;;;;8.83;1.27;;;;;;;;;;5036926;28;20491;-66
2024/02/01 04:20:31;;;;;;;8.00;1.40;;;;;;;;;;5044226;28;20550;-68
2024/02/01 04:22:59;;;;;;;7.15;1.23;;;;;;;;;;5033633;28;20053;-66
2024/02/01 04:25:26;;;;;;;5.22;0.90;;;;;;;;;;5040000;28;20095;-68
2024/02/01 04:27:53;;;;;;;8.38;1.95;;;;;;;;;;5027027;28;20048;-67
2024/02/01 04:30:23;;;;;;;5.38;1.27;;;;;;;;;;5031799;28;20056;-67
2024/02/01 04:32:50;;;;;;;7.75;1.13;;;;;;;;;;5048669;28;20144;-67
2024/02/01 04:35:17;;;;;;;12.43;1.38;;;;;;;;;;5030775;28;20048;-66
2024/02/01 04:37:45;;;;;;;5.03;1.08;;;;;;;;;;5036003;28;20072;-66
2024/02/01 04:40:13;;;;;;;5.83;1.07;;;;;;;;;;5036110;28;20079;-66
2024/02/01 04:42:41;;;;;;;12.25;1.95;;;;;;;;;;5037181;28;20326;-66
2024/02/01 04:45:09;;;;;;;16.05;1.70;;;;;;;;;;5033491;28;20064;-66
2024/02/01 04:47:36;;;;;;;;;;;;;;;;;;5040180;28;20049;-67
2024/02/01 04:50:05;;;;;;;8.50;1.30;;;;;;;;;;5047972;28;19920;-67
2024/02/01 04:52:32;;;;;;;14.68;1.67;;;;;;;;;;5036469;28;20065;-67
2024/02/01 04:54:59;;;;;;;7.28;1.30;;;;;;;;;;5025166;28;20115;-67
2024/02/01 04:57:27;;;;;;;12.43;1.70;;;;;;;;;;5036457;28;20048;-66
2024/02/01 04:59:54;;;;;;;10.05;1.50;;;;;;;;;;5029615;28;20068;-67
2024/02/01 05:02:21;;;;;;;11.25;1.38;;;;;;;;;;5035524;28;20056;-65
2024/02/01 05:04:49;;;;;;;9.93;1.83;;;;;;;;;;5036436;28;20053;-67
2024/02/01 05:07:16;;;;;;;13.57;2.10;;;;;;;;;;5043156;28;20064;-66
2024/02/01 05:09:43;;;;;;;10.55;1.38;;;;;;;;;;5047532;28;20069;-67
2024/02/01 05:12:10;;;;;;;11.38;1.33;;;;;;;;;;5047431;28;20133;-66
2024/02/01 05:14:39;;;;;;;8.00;1.38;;;;;;;;;;5049235;28;20139;-66
2024/02/01 05:17:05;;;;;;;14.38;1.30;;;;;;;;;;5044137;28;20136;-66
2024/02/01 05:19:32;;;;;;;14.27;1.85;;;;;;;;;;5052001;28;20056;-66
2024/02/01 05:22:00;;;;;;;9.73;2.22;;;;;;;;;;5037551;28;20048;-67
2024/02/01 05:24:28;;;;;;;15.60;2.33;;;;;;;;;;5024722;28;20052;-68
2024/02/01 05:26:54;;;;;;;13.30;4.85;;;;;;;;;;5040106;28;20048;-67
2024/02/01 05:29:22;;;;;;;14.75;4.03;;;;;;;;;;5046922;28;20048;-66
2024/02/01 05:31:52;;;;;;;13.07;3.88;;;;;;;;;;5028314;28;20067;-67
2024/02/01 05:34:19;;;;;;;20.48;3.45;;;;;;;;;;5038103;28;20228;-68
2024/02/01 05:36:46;;;;;;;9.93;1.73;;;;;;;;;;5040057;28;20055;-66
2024/02/01 05:39:25;;;;;;;6.03;1.20;;;;;;;;;;5034342;28;20101;-67
2024/02/01 05:41:53;;;;;;;8.07;1.85;;;;;;;;;;5032273;28;20053;-66
2024/02/01 05:44:20;;;;;;;14.63;2.40;;;;;;;;;;5029264;28;20114;-67
2024/02/01 05:46:47;;;;;;;12.18;2.80;;;;;;;;;;5036947;28;20048;-65
2024/02/01 05:49:18;;;;;;;11.70;2.42;;;;;;;;;;5021595;28;20049;-69
2024/02/01 05:51:47;;;;;;;12.10;2.38;;;;;;;;;;5033496;28;20063;-67
2024/02/01 05:54:14;;;;;;;15.32;2.85;;;;;;;;;;5052396;28;20049;-67
2024/02/01 05:56:43;;;;;;;18.08;2.65;;;;;;;;;;5052700;28;20059;-67
2024/02/01 05:59:12;;;;;;;12.77;2.22;;;;;;;;;;5042486;28;20127;-67
2024/02/01 06:01:39;;;;;;;12.40;2.28;;;;;;;;;;5038654;28;20048;-67
2024/02/01 06:04:06;;;;;;;7.47;1.17;;;;;;;;;;5029505;28;21060;-66
2024/02/01 06:06:36;;;;;;;5.67;1.17;;;;;;;;;;5047628;28;20199;-66
2024/02/01 06:09:04;;;;;;;6.25;1.00;;;;;;;;;;5037397;28;20061;-66
2024/02/01 06:11:31;;;;;;;8.67;0.90;;;;;;;;;;5034719;28;20190;-67
2024/02/01 06:13:57;;;;;;;8.50;1.20;;;;;;;;;;5015111;28;20160;-67
2024/02/01 06:16:24;;;;;;;7.47;1.75;;;;;;;;;;5041213;28;20137;-67
2024/02/01 06:18:51;;;;;;;5.80;1.58;;;;;;;;;;5026837;28;20045;-66
2024/02/01 06:21:24;;;;;;;12.88;2.03;;;;;;;;;;5028552;28;20051;-65
2024/02/01 06:23:52;;;;;;;9.90;1.35;;;;;;;;;;5001126;28;20169;-64
2024/02/01 06:26:20;;;;;;;9.00;1.77;;;;;;;;;;5033966;28;20057;-65
2024/02/01 06:28:47;;;;;;;37.60;11.27;;;;;;;;;;5040671;28;20099;-66
2024/02/01 06:31:14;;;;;;;18.15;4.28;;;;;;;;;;5034131;28;20102;-66
2024/02/01 06:33:44;;;;;;;13.10;2.20;;;;;;;;;;5031154;28;20044;-67
2024/02/01 06:36:13;;;;;;;11.43;2.90;;;;;;;;;;5029330;28;20228;-67
2024/02/01 06:41:46;;;;;;;14.93;2.92;;;;;;;;;;5023713;28;20067;-66
2024/02/01 06:44:21;;;;;;;15.15;3.88;;;;;;;;;;5035917;28;20135;-67
2024/02/01 06:47:06;;;;;;;13.27;3.20;;;;;;;;;;5032263;28;20049;-66
2024/02/01 06:50:00;;;;;;;12.07;2.20;;;;;;;;;;5029747;28;20073;-67
2024/02/01 06:52:38;;;;;;;14.90;2.05;;;;;;;;;;5024428;28;20174;-66
2024/02/01 06:58:13;;;;;;;11.45;1.75;;;;;;;;;;5026189;28;20045;-67
2024/02/01 07:00:51;;;;;;;6.38;1.63;;;;;;;;;;5033946;28;20134;-67
2024/02/01 07:03:44;;;;;;;6.45;1.20;;;;;;;;;;5029546;28;20053;-67
2024/02/01 07:06:27;;;;;;;8.52;1.17;;;;;;;;;;5032611;28;21180;-66
2024/02/01 07:09:16;;;;;;;8.38;1.17;;;;;;;;;;5033172;28;20376;-67
2024/02/01 07:11:58;;;;;;;7.68;1.40;;;;;;;;;;5028497;28;20040;-68
2024/02/01 07:14:36;;;;;;;12.88;1.55;;;;;;;;;;5029335;28;20054;-66
2024/02/01 07:17:26;;;;;;;9.45;1.85;;;;;;;;;;5033136;28;20049;-67
2024/02/01 07:20:14;;;;;;;15.70;2.97;;;;;;;;;;5031819;28;20332;-65
2024/02/01 07:22:50;;;;;;;12.07;1.80;;;;;;;;;;5035138;28;20052;-64
2024/02/01 07:25:46;;;;;;;11.45;1.65;;;;;;;;;;4948848;28;20318;-66
2024/02/01 07:59:47;;;;;;;11.55;1.58;;;;;;;;;;4971835;28;20050;-65
2024/02/01 08:02:24;;;;;;;;;;;;;;;;;;4962867;28;20077;-64
2024/02/01 08:07:49;;;;;;;7.45;1.40;;;;;;;;;;5048991;28;20205;-64
2024/02/01 08:10:18;;;;;;;9.50;1.30;;;;;;;;;;5054866;28;20071;-66
2024/02/01 08:12:46;;;;;;;10.45;1.73;;;;;;;;;;5045431;28;20091;-65
2024/02/01 08:15:18;;;;;;;8.07;1.45;;;;;;;;;;5041370;28;20108;-65
2024/02/01 08:17:46;;;;;;;8.20;1.40;;;;;;;;;;5038710;28;20054;-66
2024/02/01 08:20:17;;;;;;;12.52;1.30;;;;;;;;;;5044764;28;20087;-65
2024/02/01 08:22:44;;;;;;;9.23;1.45;;;;;;;;;;5032710;28;20061;-65
2024/02/01 08:25:12;;;;;;;12.50;1.52;;;;;;;;;;5018910;28;20071;-66
2024/02/01 08:27:49;;;;;;;8.88;1.58;;;;;;;;;;5050382;28;20049;-66
2024/02/01 08:30:18;;;;;;;13.38;1.58;;;;;;;;;;5038591;28;20064;-66
2024/02/01 08:32:45;;;;;;;5.82;1.08;;;;;;;;;;5032954;28;20163;-67
2024/02/01 08:35:13;;;;;;;9.90;1.17;;;;;;;;;;5032715;28;20056;-66
2024/02/01 08:37:44;;;;;;;18.95;1.52;;;;;;;;;;5042702;28;20083;-66
2024/02/01 08:40:17;;;;;;;12.65;2.17;;;;;;;;;;5034781;28;20128;-67
2024/02/01 08:42:50;;;;;;;21.20;5.07;;;;;;;;;;5041399;28;20044;-66
2024/02/01 08:45:19;;;;;;;4.90;1.70;;;;;;;;;;5022442;28;20061;-66
2024/02/01 08:47:45;;;;;;;;;;;;;;;;;;5037844;28;20119;-66
2024/02/01 08:50:13;;;;;;;4.88;1.00;;;;;;;;;;5024727;28;19932;-67
2024/02/01 08:52:45;;;;;;;15.75;1.92;;;;;;;;;;5037026;28;20144;-66
2024/02/01 08:55:15;;;;;;;7.38;1.27;;;;;;;;;;5024212;28;20052;-67
2024/02/01 08:57:42;;;;;;;14.50;1.27;;;;;;;;;;5032848;28;20238;-66
2024/02/01 09:00:25;;;;;;;7.75;1.45;;;;;;;;;;5058202;28;20053;-67
2024/02/01 09:03:04;;;;;;;7.38;1.60;;;;;;;;;;5043240;28;20061;-66
2024/02/01 09:05:32;;;;;;;12.60;1.60;;;;;;;;;;5029030;28;20056;-66
2024/02/01 09:08:02;;;;;;;;;;;;;;;;;;5038825;28;20045;-66
2024/02/01 09:10:29;;;;;;;7.40;1.23;;;;;;;;;;5041814;28;19925;-65
2024/02/01 09:12:58;;;;;;;8.65;1.67;;;;;;;;;;5042833;28;20361;-68
2024/02/01 09:15:25;;;;;;;12.45;1.27;;;;;;;;;;5020430;28;20182;-66
2024/02/01 09:17:56;;;;;;;9.77;1.73;;;;;;;;;;5037938;28;20114;-66
2024/02/01 09:20:25;;;;;;;16.30;2.00;;;;;;;;;;5038303;28;20133;-67
2024/02/01 09:22:53;;;;;;;11.65;1.83;;;;;;;;;;5044966;28;20044;-66
2024/02/01 09:25:23;;;;;;;9.93;1.50;;;;;;;;;;5003730;28;20048;-66
2024/02/01 09:27:51;;;;;;;13.43;2.13;;;;;;;;;;5029373;28;20057;-66
2024/02/01 09:30:19;;;;;;;11.32;1.88;;;;;;;;;;5029943;28;20056;-66
2024/02/01 09:32:49;;;;;;;8.55;1.52;;;;;;;;;;5032921;28;20126;-66
2024/02/01 09:35:17;;;;;;;14.35;1.33;;;;;;;;;;5034073;28;20049;-67
2024/02/01 09:37:51;;;;;;;13.32;1.67;;;;;;;;;;5033540;28;20048;-66
2024/02/01 09:40:18;;;;;;;7.65;1.33;;;;;;;;;;5035408;28;20163;-68
2024/02/01 09:42:47;;;;;;;11.15;1.48;;;;;;;;;;5041557;28;20069;-67
2024/02/01 09:45:15;;;;;;;11.07;1.50;;;;;;;;;;5040856;28;20208;-66
2024/02/01 09:47:46;;;;;;;12.68;1.65;;;;;;;;;;5039535;28;20053;-68
2024/02/01 09:50:16;;;;;;;10.75;1.85;;;;;;;;;;5041227;28;20064;-66
2024/02/01 09:52:48;;;;;;;12.35;2.15;;;;;;;;;;5057985;28;20040;-66
2024/02/01 09:55:17;;;;;;;9.93;1.60;;;;;;;;;;5014525;28;20098;-67
2024/02/01 09:57:47;;;;;;;16.50;1.95;;;;;;;;;;5039176;28;20140;-67
2024/02/01 10:00:23;;;;;;;6.32;1.15;;;;;;;;;;5038365;28;20113;-67
2024/02/01 10:02:54;;;;;;;11.45;1.90;;;;;;;;;;5038081;28;20091;-67
2024/02/01 10:05:24;;;;;;;33.88;7.65;;;;;;;;;;5014727;28;20351;-67
2024/02/01 10:07:52;;;;;;;13.20;2.25;;;;;;;;;;5019984;28;20064;-67
2024/02/01 10:10:21;;;;;;;12.38;1.70;;;;;;;;;;5026005;28;20212;-66
2024/02/01 10:12:49;;;;;;;20.15;2.38;;;;;;;;;;5021834;28;20057;-67
2024/02/01 10:15:20;;;;;;;12.90;1.75;;;;;;;;;;4998959;28;20186;-67
2024/02/01 10:17:52;;;;;;;9.65;1.40;;;;;;;;;;5039065;28;20140;-68
2024/02/01 10:20:35;;;;;;;15.35;1.70;;;;;;;;;;5046637;28;20056;-67
2024/02/01 10:23:03;;;;;;;8.13;1.20;;;;;;;;;;5035914;28;20061;-66
2024/02/01 10:25:36;;;;;;;13.55;1.60;;;;;;;;;;4969807;28;20056;-66
2024/02/01 10:28:06;;;;;;;17.60;2.17;;;;;;;;;;5033061;28;20080;-66
2024/02/01 10:30:36;;;;;;;5.70;1.10;;;;;;;;;;5037000;28;20072;-66
2024/02/01 10:33:03;;;;;;;14.00;2.30;;;;;;;;;;5047362;28;20056;-67
2024/02/01 10:35:32;;;;;;;13.80;2.35;;;;;;;;;;5037245;28;20075;-66
2024/02/01 10:38:11;;;;;;;13.38;1.88;;;;;;;;;;5044865;28;20056;-66
2024/02/01 10:40:45;;;;;;;15.30;1.63;;;;;;;;;;5045063;28;20102;-67
2024/02/01 10:43:18;;;;;;;13.90;2.17;;;;;;;;;;5047386;28;20052;-67
2024/02/01 10:45:50;;;;;;;14.43;1.52;;;;;;;;;;5023357;28;20049;-66
2024/02/01 10:48:22;;;;;;;13.18;1.60;;;;;;;;;;5038558;28;20060;-66
2024/02/01 10:50:49;;;;;;;17.02;2.28;;;;;;;;;;5036138;28;20571;-66
2024/02/01 10:53:17;;;;;;;17.85;2.55;;;;;;;;;;5029246;28;20056;-66
2024/02/01 10:55:48;;;;;;;13.90;2.15;;;;;;;;;;5031437;28;20052;-66
2024/02/01 10:58:19;;;;;;;13.50;1.60;;;;;;;;;;5037018;28;20061;-66
2024/02/01 11:00:47;;;;;;;15.02;2.63;;;;;;;;;;5044945;28;20056;-66
2024/02/01 11:03:16;;;;;;;12.55;2.28;;;;;;;;;;5030924;28;20069;-66
2024/02/01 11:05:44;;;;;;;12.35;1.95;;;;;;;;;;5022342;28;20192;-67
2024/02/01 11:08:17;;;;;;;10.55;2.05;;;;;;;;;;5044279;28;20120;-67
2024/02/01 11:10:59;;;;;;;11.65;1.98;;;;;;;;;;5042499;28;20110;-67
2024/02/01 11:13:31;;;;;;;16.60;2.08;;;;;;;;;;5044215;28;20151;-66
2024/02/01 11:15:58;;;;;;;14.82;1.83;;;;;;;;;;5033339;28;20076;-67
2024/02/01 11:18:26;;;;;;;16.67;1.80;;;;;;;;;;5037998;28;20200;-67
2024/02/01 11:20:59;;;;;;;9.95;1.77;;;;;;;;;;5031952;28;20272;-67
2024/02/01 11:23:40;;;;;;;11.80;1.77;;;;;;;;;;5036919;28;20060;-68
2024/02/01 11:26:15;;;;;;;19.48;1.90;;;;;;;;;;5007671;28;20052;-67
2024/02/01 11:28:47;;;;;;;9.45;1.17;;;;;;;;;;5048378;28;20053;-65
2024/02/01 11:31:16;;;;;;;9.90;1.83;;;;;;;;;;5036332;28;20048;-66
2024/02/01 11:33:43;;;;;;;17.60;1.90;;;;;;;;;;5035718;28;20145;-65
2024/02/01 11:36:10;;;;;;;10.52;1.63;;;;;;;;;;5036537;28;20196;-66
2024/02/01 11:38:40;;;;;;;8.27;2.17;;;;;;;;;;5035930;28;20135;-68
2024/02/01 11:41:08;;;;;;;19.23;2.13;;;;;;;;;;5044257;28;20065;-67
2024/02/01 11:43:38;;;;;;;19.85;1.70;;;;;;;;;;5028624;28;20063;-66
2024/02/01 11:46:07;;;;;;;18.35;2.08;;;;;;;;;;5029280;28;20436;-66
2024/02/01 11:48:34;;;;;;;9.93;1.80;;;;;;;;;;5033223;28;20072;-66
2024/02/01 11:51:04;;;;;;;13.40;2.35;;;;;;;;;;5028124;28;20062;-67
2024/02/01 11:53:31;;;;;;;15.07;1.98;;;;;;;;;;5022718;28;20053;-67
2024/02/01 11:55:58;;;;;;;7.60;1.70;;;;;;;;;;5015105;28;20036;-67
2024/02/01 11:58:31;;;;;;;11.77;1.55;;;;;;;;;;5040082;28;20163;-66
2024/02/01 12:01:01;;;;;;;17.88;2.15;;;;;;;;;;5051347;28;20061;-68
2024/02/01 12:03:33;;;;;;;17.40;2.13;;;;;;;;;;5028423;28;20052;-66
2024/02/01 12:06:01;;;;;;;17.88;2.03;;;;;;;;;;5017425;28;20045;-65
2024/02/01 12:08:28;;;;;;;14.90;1.42;;;;;;;;;;5047104;28;20049;-66
2024/02/01 12:10:55;;;;;;;18.50;1.88;;;;;;;;;;5036462;28;20095;-66
2024/02/01 12:13:23;;;;;;;9.57;1.45;;;;;;;;;;5039200;28;20053;-66
2024/02/01 12:15:54;;;;;;;14.23;1.83;;;;;;;;;;5045417;28;20045;-66
2024/02/01 12:18:21;;;;;;;13.80;2.60;;;;;;;;;;5039638;28;20053;-66
2024/02/01 12:20:52;;;;;;;27.17;4.72;;;;;;;;;;5047432;28;20056;-67
2024/02/01 12:23:19;;;;;;;12.73;2.03;;;;;;;;;;5042765;28;20049;-66
2024/02/01 12:25:47;;;;;;;16.02;1.67;;;;;;;;;;5015980;28;20126;-67
2024/02/01 12:28:17;;;;;;;17.10;1.70;;;;;;;;;;5035040;28;20072;-67
2024/02/01 12:30:45;;;;;;;6.82;1.45;;;;;;;;;;5037866;28;20137;-66
2024/02/01 12:33:13;;;;;;;14.30;2.17;;;;;;;;;;5035242;28;20060;-66
2024/02/01 12:35:44;;;;;;;12.35;1.67;;;;;;;;;;5007417;28;20045;-65
2024/02/01 12:38:14;;;;;;;13.35;1.77;;;;;;;;;;5036459;28;20048;-66
2024/02/01 12:40:41;;;;;;;9.93;1.55;;;;;;;;;;5034512;28;20045;-65
2024/02/01 12:43:11;;;;;;;20.70;1.90;;;;;;;;;;5026273;28;20057;-64
2024/02/01 12:45:46;;;;;;;20.40;2.38;;;;;;;;;;5012367;28;20048;-67
2024/02/01 12:48:13;;;;;;;17.73;2.60;;;;;;;;;;5026186;28;20057;-67
2024/02/01 12:50:40;;;;;;;13.52;1.90;;;;;;;;;;5039658;28;20088;-67
2024/02/01 12:53:08;;;;;;;20.23;2.25;;;;;;;;;;5042939;28;20080;-67
2024/02/01 12:55:42;;;;;;;14.32;1.92;;;;;;;;;;5019928;28;20056;-67
2024/02/01 12:58:17;;;;;;;9.77;1.50;;;;;;;;;;5038427;28;20289;-67
2024/02/01 13:00:44;;;;;;;12.05;1.70;;;;;;;;;;5033253;28;20357;-67
2024/02/01 13:03:12;;;;;;;13.63;1.50;;;;;;;;;;5037829;28;20053;-67
2024/02/01 13:05:39;;;;;;;8.60;1.45;;;;;;;;;;5007119;28;20060;-67
2024/02/01 13:08:13;;;;;;;17.70;1.77;;;;;;;;;;5033252;28;20186;-67
2024/02/01 13:10:46;;;;;;;13.00;2.13;;;;;;;;;;5035543;28;20061;-66
2024/02/01 13:13:18;;;;;;;21.20;1.70;;;;;;;;;;5034199;28;20151;-67
2024/02/01 13:15:48;;;;;;;12.45;2.05;;;;;;;;;;5006038;28;20056;-67
2024/02/01 13:18:18;;;;;;;6.55;1.65;;;;;;;;;;5041990;28;20060;-67
2024/02/01 13:20:46;;;;;;;8.50;1.80;;;;;;;;;;5028284;28;20057;-68
2024/02/01 13:23:13;;;;;;;7.00;1.40;;;;;;;;;;5036650;28;20056;-67
2024/02/01 13:25:42;;;;;;;11.18;1.55;;;;;;;;;;5030446;28;20048;-67
2024/02/01 13:28:09;;;;;;;13.40;3.65;;;;;;;;;;5037188;28;20063;-66
2024/02/01 13:30:39;;;;;;;17.73;4.25;;;;;;;;;;5036994;28;20144;-66
2024/02/01 13:33:07;;;;;;;17.33;3.00;;;;;;;;;;5036843;28;20136;-66
2024/02/01 13:35:36;;;;;;;14.88;1.95;;;;;;;;;;5010120;28;20060;-66
2024/02/01 13:38:05;;;;;;;14.80;2.40;;;;;;;;;;5037238;28;20146;-66
2024/02/01 13:40:32;;;;;;;19.85;1.83;;;;;;;;;;5033500;28;20114;-67
2024/02/01 13:43:01;;;;;;;11.18;1.75;;;;;;;;;;5039068;28;20055;-66
2024/02/01 13:45:27;;;;;;;14.10;2.05;;;;;;;;;;5027208;28;20151;-66
2024/02/01 13:47:56;;;;;;;13.52;1.42;;;;;;;;;;5044269;28;20080;-67
2024/02/01 13:50:23;;;;;;;13.25;1.85;;;;;;;;;;5035934;28;20132;-69
2024/02/01 13:52:53;;;;;;;10.40;1.50;;;;;;;;;;5033239;28;20075;-64
2024/02/01 13:55:20;;;;;;;14.93;1.40;;;;;;;;;;5040822;28;20139;-66
2024/02/01 13:57:47;;;;;;;12.88;1.25;;;;;;;;;;5039317;28;20102;-66
2024/02/01 14:00:19;;;;;;;15.48;1.77;;;;;;;;;;5039560;28;20052;-66
2024/02/01 14:02:47;;;;;;;10.02;1.98;;;;;;;;;;4969930;28;20057;-66
2024/02/01 14:05:15;;;;;;;7.03;1.40;;;;;;;;;;5035528;28;20061;-66
2024/02/01 14:07:45;;;;;;;12.00;1.52;;;;;;;;;;5027951;28;20049;-65
2024/02/01 14:10:12;;;;;;;9.80;1.42;;;;;;;;;;5036885;28;20084;-66
2024/02/01 14:12:40;;;;;;;7.95;1.50;;;;;;;;;;5019167;28;20141;-66
2024/02/01 14:15:08;;;;;;;11.73;1.65;;;;;;;;;;5046288;28;20061;-65
2024/02/01 14:17:36;;;;;;;11.00;1.55;;;;;;;;;;5050568;28;20105;-66
2024/02/01 14:20:10;;;;;;;11.60;1.42;;;;;;;;;;5029939;28;20050;-65
2024/02/01 14:22:39;;;;;;;10.90;1.95;;;;;;;;;;5014723;28;20060;-65
2024/02/01 14:25:06;;;;;;;14.48;2.13;;;;;;;;;;5045690;28;20068;-66
2024/02/01 14:27:33;;;;;;;6.30;1.33;;;;;;;;;;5046733;28;20059;-64
2024/02/01 14:30:00;;;;;;;6.63;1.45;;;;;;;;;;5033816;28;20086;-65
2024/02/01 14:32:27;;;;;;;8.68;1.40;;;;;;;;;;5025544;28;20067;-65
2024/02/01 14:34:57;;;;;;;11.30;1.52;;;;;;;;;;5036144;28;20060;-65
2024/02/01 14:37:24;;;;;;;15.55;1.95;;;;;;;;;;5033285;28;20053;-66
2024/02/01 14:39:51;;;;;;;15.10;2.00;;;;;;;;;;5040410;28;20053;-65
2024/02/01 14:42:18;;;;;;;11.43;1.67;;;;;;;;;;5015510;28;20124;-66
2024/02/01 14:44:44;;;;;;;10.82;1.38;;;;;;;;;;5047865;28;20152;-65
2024/02/01 14:47:14;;;;;;;12.93;1.77;;;;;;;;;;5023443;28;20177;-66
2024/02/01 14:49:41;;;;;;;13.90;1.80;;;;;;;;;;5039941;28;20074;-65
2024/02/01 14:52:16;;;;;;;13.65;1.58;;;;;;;;;;5023876;28;20083;-65
2024/02/01 14:54:44;;;;;;;15.55;2.45;;;;;;;;;;5030586;28;20139;-65
2024/02/01 14:57:11;;;;;;;18.15;1.98;;;;;;;;;;5029559;28;20263;-66
2024/02/01 14:59:39;;;;;;;14.20;1.75;;;;;;;;;;5028386;28;20119;-66
2024/02/01 15:02:06;;;;;;;17.65;2.92;;;;;;;;;;5015314;28;20072;-66
2024/02/01 15:04:33;;;;;;;17.23;2.53;;;;;;;;;;5047082;28;20060;-66
2024/02/01 15:07:00;;;;;;;18.70;2.95;;;;;;;;;;5045413;28;20083;-65
2024/02/01 15:09:53;;;;;;;18.45;1.73;;;;;;;;;;5045581;28;20076;-64
2024/02/01 15:12:21;;;;;;;15.88;2.03;;;;;;;;;;4999806;28;20064;-65
2024/02/01 15:14:53;;;;;;;17.67;1.80;;;;;;;;;;5036039;28;20053;-65
2024/02/01 15:17:22;;;;;;;8.90;1.80;;;;;;;;;;5043449;28;20688;-65
2024/02/01 15:19:49;;;;;;;14.88;2.60;;;;;;;;;;5044654;28;20049;-66
2024/02/01 15:22:16;;;;;;;14.75;1.85;;;;;;;;;;5023310;28;20058;-66
2024/02/01 15:24:43;;;;;;;16.10;2.17;;;;;;;;;;5030511;28;20595;-66
2024/02/01 15:27:14;;;;;;;12.65;2.08;;;;;;;;;;5033559;28;20040;-65
2024/02/01 15:29:42;;;;;;;15.32;2.05;;;;;;;;;;5036701;28;20040;-65
2024/02/01 15:32:15;;;;;;;;;;;;;;;;;;5030741;28;20056;-66